Weather at Almaty International Airport

Public forecast

Using degrees Celsius for public forecast. Weather courtesy of forecast.io.

Current aviation weather report (METAR) for Almaty International Airport

2024/06/22 09:00 (retrieved 34 minutes ago)

UAAA 220900Z 22003MPS 9999 SCT050CB OVC100 27/14 Q1008 NOSIG

Aviation forecast (TAF) for Almaty International Airport

2024/06/22 06:21 (retrieved 3 hours ago)

TAF UAAA 220501Z 2206/2306 20003G08MPS 9999 SCT050CB BKN100 TX32/2210Z TN20/2301Z TEMPO 2206/2215 25008G13MPS 5000 -TSRA BLDU BKN050CB OVC100 BECMG 2215/2216 16003MPS TEMPO 2216/2302 21003MPS BECMG 2302/2303 35003MPS TEMPO 2302/2306 04003G08MPS